sensor_id;sensor_type;location;lat;lon;timestamp;pressure;altitude;pressure_sealevel;temperature;humidity
18795;BME280;29610;49.022;12.114;2023-02-04T00:00:46;98433.53;;;6.81;100.00
18795;BME280;29610;49.022;12.114;2023-02-04T00:03:16;98444.06;;;6.82;100.00
18795;BME280;29610;49.022;12.114;2023-02-04T00:05:45;98446.22;;;6.80;100.00
18795;BME280;29610;49.022;12.114;2023-02-04T00:08:13;98450.81;;;6.80;100.00
18795;BME280;29610;49.022;12.114;2023-02-04T00:10:42;98448.38;;;6.78;100.00
18795;BME280;29610;49.022;12.114;2023-02-04T00:13:11;98443.81;;;6.74;100.00
18795;BME280;29610;49.022;12.114;2023-02-04T00:15:39;98450.31;;;6.78;100.00
18795;BME280;29610;49.022;12.114;2023-02-04T00:18:08;98448.44;;;6.73;100.00
18795;BME280;29610;49.022;12.114;2023-02-04T00:20:39;98447.56;;;6.83;100.00
18795;BME280;29610;49.022;12.114;2023-02-04T00:23:08;98451.34;;;6.82;100.00
18795;BME280;29610;49.022;12.114;2023-02-04T00:25:36;98446.78;;;6.77;100.00
18795;BME280;29610;49.022;12.114;2023-02-04T00:28:05;98447.56;;;6.83;100.00
18795;BME280;29610;49.022;12.114;2023-02-04T00:30:33;98455.94;;;6.81;100.00
18795;BME280;29610;49.022;12.114;2023-02-04T00:33:02;98450.00;;;6.84;100.00
18795;BME280;29610;49.022;12.114;2023-02-04T00:35:31;98466.53;;;6.73;100.00
18795;BME280;29610;49.022;12.114;2023-02-04T00:38:01;98479.47;;;6.76;100.00
18795;BME280;29610;49.022;12.114;2023-02-04T00:40:30;98469.53;;;6.66;100.00
18795;BME280;29610;49.022;12.114;2023-02-04T00:42:59;98487.31;;;6.72;100.00
18795;BME280;29610;49.022;12.114;2023-02-04T00:45:27;98497.56;;;6.75;100.00
18795;BME280;29610;49.022;12.114;2023-02-04T00:47:56;98506.25;;;6.62;100.00
18795;BME280;29610;49.022;12.114;2023-02-04T00:50:25;98512.19;;;6.69;100.00
18795;BME280;29610;49.022;12.114;2023-02-04T00:52:53;98505.41;;;6.72;100.00
18795;BME280;29610;49.022;12.114;2023-02-04T00:55:24;98515.41;;;6.76;100.00
18795;BME280;29610;49.022;12.114;2023-02-04T00:57:52;98518.91;;;6.72;100.00
18795;BME280;29610;49.022;12.114;2023-02-04T01:00:21;98529.47;;;6.73;100.00
18795;BME280;29610;49.022;12.114;2023-02-04T01:02:50;98534.88;;;6.73;100.00
18795;BME280;29610;49.022;12.114;2023-02-04T01:05:19;98533.53;;;6.71;100.00
18795;BME280;29610;49.022;12.114;2023-02-04T01:07:47;98530.81;;;6.71;100.00
18795;BME280;29610;49.022;12.114;2023-02-04T01:10:16;98548.13;;;6.65;100.00
18795;BME280;29610;49.022;12.114;2023-02-04T01:12:47;98536.28;;;6.56;100.00
18795;BME280;29610;49.022;12.114;2023-02-04T01:15:16;98534.63;;;6.65;100.00
18795;BME280;29610;49.022;12.114;2023-02-04T01:17:45;98527.91;;;6.57;100.00
18795;BME280;29610;49.022;12.114;2023-02-04T01:20:14;98540.34;;;6.48;100.00
18795;BME280;29610;49.022;12.114;2023-02-04T01:22:43;98556.78;;;6.62;100.00
18795;BME280;29610;49.022;12.114;2023-02-04T01:25:11;98542.75;;;6.55;100.00
18795;BME280;29610;49.022;12.114;2023-02-04T01:27:41;98541.94;;;6.59;100.00
18795;BME280;29610;49.022;12.114;2023-02-04T01:30:14;98541.16;;;6.49;100.00
18795;BME280;29610;49.022;12.114;2023-02-04T01:32:43;98541.94;;;6.54;100.00
18795;BME280;29610;49.022;12.114;2023-02-04T01:35:11;98549.81;;;6.41;100.00
18795;BME280;29610;49.022;12.114;2023-02-04T01:37:40;98540.38;;;6.38;100.00
18795;BME280;29610;49.022;12.114;2023-02-04T01:40:10;98544.16;;;6.32;100.00
18795;BME280;29610;49.022;12.114;2023-02-04T01:42:40;98541.97;;;6.49;100.00
18795;BME280;29610;49.022;12.114;2023-02-04T01:45:11;98567.91;;;6.45;100.00
18795;BME280;29610;49.022;12.114;2023-02-04T01:47:40;98555.47;;;6.49;100.00
18795;BME280;29610;49.022;12.114;2023-02-04T01:50:12;98564.66;;;6.48;100.00
18795;BME280;29610;49.022;12.114;2023-02-04T01:52:44;98566.03;;;6.36;100.00
18795;BME280;29610;49.022;12.114;2023-02-04T01:55:17;98560.34;;;6.37;100.00
18795;BME280;29610;49.022;12.114;2023-02-04T01:57:46;98569.50;;;6.46;100.00
18795;BME280;29610;49.022;12.114;2023-02-04T02:00:24;98567.63;;;6.37;100.00
18795;BME280;29610;49.022;12.114;2023-02-04T02:02:54;98569.78;;;6.45;100.00
18795;BME280;29610;49.022;12.114;2023-02-04T02:05:27;98569.81;;;6.35;100.00
18795;BME280;29610;49.022;12.114;2023-02-04T02:08:01;98577.88;;;6.45;100.00
18795;BME280;29610;49.022;12.114;2023-02-04T02:10:32;98574.66;;;6.48;100.00
18795;BME280;29610;49.022;12.114;2023-02-04T02:13:02;98566.00;;;6.46;100.00
18795;BME280;29610;49.022;12.114;2023-02-04T02:15:32;98588.16;;;6.48;100.00
18795;BME280;29610;49.022;12.114;2023-02-04T02:18:01;98582.22;;;6.41;100.00
18795;BME280;29610;49.022;12.114;2023-02-04T02:20:31;98583.56;;;6.43;100.00
18795;BME280;29610;49.022;12.114;2023-02-04T02:23:13;98583.28;;;6.45;100.00
18795;BME280;29610;49.022;12.114;2023-02-04T02:25:46;98579.78;;;6.44;100.00
18795;BME280;29610;49.022;12.114;2023-02-04T02:28:19;98570.88;;;6.49;100.00
18795;BME280;29610;49.022;12.114;2023-02-04T02:30:49;98577.88;;;6.50;100.00
18795;BME280;29610;49.022;12.114;2023-02-04T02:33:20;98575.16;;;6.50;100.00
18795;BME280;29610;49.022;12.114;2023-02-04T02:35:49;98578.19;;;6.38;100.00
18795;BME280;29610;49.022;12.114;2023-02-04T02:38:18;98591.69;;;6.38;100.00
18795;BME280;29610;49.022;12.114;2023-02-04T02:40:50;98598.41;;;6.46;100.00
18795;BME280;29610;49.022;12.114;2023-02-04T02:43:24;98604.63;;;6.36;100.00
18795;BME280;29610;49.022;12.114;2023-02-04T02:45:57;98612.47;;;6.43;100.00
18795;BME280;29610;49.022;12.114;2023-02-04T02:48:27;98598.97;;;6.48;100.00
18795;BME280;29610;49.022;12.114;2023-02-04T02:50:56;98592.75;;;6.47;100.00
18795;BME280;29610;49.022;12.114;2023-02-04T02:53:24;98594.34;;;6.53;100.00
18795;BME280;29610;49.022;12.114;2023-02-04T02:55:55;98605.97;;;6.59;100.00
18795;BME280;29610;49.022;12.114;2023-02-04T02:58:29;98608.13;;;6.57;100.00
18795;BME280;29610;49.022;12.114;2023-02-04T03:01:02;98619.19;;;6.55;100.00
18795;BME280;29610;49.022;12.114;2023-02-04T03:03:36;98618.94;;;6.47;100.00
18795;BME280;29610;49.022;12.114;2023-02-04T03:06:12;98611.91;;;6.56;100.00
18795;BME280;29610;49.022;12.114;2023-02-04T03:08:43;98632.41;;;6.57;100.00
18795;BME280;29610;49.022;12.114;2023-02-04T03:11:13;98629.72;;;6.52;100.00
18795;BME280;29610;49.022;12.114;2023-02-04T03:13:42;98631.59;;;6.51;100.00
18795;BME280;29610;49.022;12.114;2023-02-04T03:16:12;98628.34;;;6.59;100.00
18795;BME280;29610;49.022;12.114;2023-02-04T03:18:41;98634.31;;;6.46;100.00
18795;BME280;29610;49.022;12.114;2023-02-04T03:21:11;98630.28;;;6.49;100.00
18795;BME280;29610;49.022;12.114;2023-02-04T03:23:40;98641.63;;;6.41;100.00
18795;BME280;29610;49.022;12.114;2023-02-04T03:26:09;98647.81;;;6.46;100.00
18795;BME280;29610;49.022;12.114;2023-02-04T03:28:41;98640.53;;;6.52;100.00
18795;BME280;29610;49.022;12.114;2023-02-04T03:31:10;98654.03;;;6.52;100.00
18795;BME280;29610;49.022;12.114;2023-02-04T03:33:42;98665.91;;;6.41;100.00
18795;BME280;29610;49.022;12.114;2023-02-04T03:36:11;98671.03;;;6.37;100.00
18795;BME280;29610;49.022;12.114;2023-02-04T03:38:40;98678.59;;;6.35;100.00
18795;BME280;29610;49.022;12.114;2023-02-04T03:41:08;98668.34;;;6.27;100.00
18795;BME280;29610;49.022;12.114;2023-02-04T03:43:37;98688.06;;;6.28;100.00
18795;BME280;29610;49.022;12.114;2023-02-04T03:46:07;98688.31;;;6.31;100.00
18795;BME280;29610;49.022;12.114;2023-02-04T03:48:35;98698.88;;;6.38;100.00
18795;BME280;29610;49.022;12.114;2023-02-04T03:51:05;98702.38;;;6.28;100.00
18795;BME280;29610;49.022;12.114;2023-02-04T03:53:33;98709.41;;;6.39;100.00
18795;BME280;29610;49.022;12.114;2023-02-04T03:56:03;98712.63;;;6.51;100.00
18795;BME280;29610;49.022;12.114;2023-02-04T03:58:32;98713.16;;;6.48;100.00
18795;BME280;29610;49.022;12.114;2023-02-04T04:01:00;98713.97;;;6.34;100.00
18795;BME280;29610;49.022;12.114;2023-02-04T04:03:30;98721.53;;;6.37;100.00
18795;BME280;29610;49.022;12.114;2023-02-04T04:05:59;98717.22;;;6.36;100.00
18795;BME280;29610;49.022;12.114;2023-02-04T04:08:28;98708.56;;;6.29;100.00
18795;BME280;29610;49.022;12.114;2023-02-04T04:10:57;98716.66;;;6.19;100.00
18795;BME280;29610;49.022;12.114;2023-02-04T04:13:25;98733.69;;;6.29;100.00
18795;BME280;29610;49.022;12.114;2023-02-04T04:15:54;98723.41;;;6.21;100.00
18795;BME280;29610;49.022;12.114;2023-02-04T04:18:23;98729.63;;;6.27;100.00
18795;BME280;29610;49.022;12.114;2023-02-04T04:20:53;98737.72;;;6.17;100.00
18795;BME280;29610;49.022;12.114;2023-02-04T04:23:22;98732.31;;;6.17;100.00
18795;BME280;29610;49.022;12.114;2023-02-04T04:25:50;98745.56;;;6.28;100.00
18795;BME280;29610;49.022;12.114;2023-02-04T04:28:19;98741.50;;;6.21;100.00
18795;BME280;29610;49.022;12.114;2023-02-04T04:30:48;98746.63;;;6.22;100.00
18795;BME280;29610;49.022;12.114;2023-02-04T04:33:17;98743.66;;;6.19;100.00
18795;BME280;29610;49.022;12.114;2023-02-04T04:35:45;98743.66;;;6.14;100.00
18795;BME280;29610;49.022;12.114;2023-02-04T04:38:15;98750.94;;;6.23;100.00
18795;BME280;29610;49.022;12.114;2023-02-04T04:40:44;98766.56;;;6.16;100.00
18795;BME280;29610;49.022;12.114;2023-02-04T04:43:13;98772.78;;;6.17;100.00
18795;BME280;29610;49.022;12.114;2023-02-04T04:45:42;98774.16;;;6.14;100.00
18795;BME280;29610;49.022;12.114;2023-02-04T04:48:10;98772.22;;;6.00;100.00
18795;BME280;29610;49.022;12.114;2023-02-04T04:50:39;98784.31;;;5.92;100.00
18795;BME280;29610;49.022;12.114;2023-02-04T04:53:08;98780.31;;;5.94;100.00
18795;BME280;29610;49.022;12.114;2023-02-04T04:55:39;98790.03;;;6.01;100.00
18795;BME280;29610;49.022;12.114;2023-02-04T04:58:08;98798.38;;;5.94;100.00
18795;BME280;29610;49.022;12.114;2023-02-04T05:00:37;98790.00;;;5.85;100.00
18795;BME280;29610;49.022;12.114;2023-02-04T05:03:06;98787.28;;;5.85;100.00
18795;BME280;29610;49.022;12.114;2023-02-04T05:05:34;98791.31;;;5.83;100.00
18795;BME280;29610;49.022;12.114;2023-02-04T05:08:07;98806.91;;;5.81;100.00
18795;BME280;29610;49.022;12.114;2023-02-04T05:10:41;98813.91;;;5.77;100.00
18795;BME280;29610;49.022;12.114;2023-02-04T05:13:09;98809.84;;;5.69;100.00
18795;BME280;29610;49.022;12.114;2023-02-04T05:15:38;98825.06;;;5.85;100.00
18795;BME280;29610;49.022;12.114;2023-02-04T05:18:07;98822.66;;;5.99;100.00
18795;BME280;29610;49.022;12.114;2023-02-04T05:20:36;98833.16;;;5.90;100.00
18795;BME280;29610;49.022;12.114;2023-02-04T05:23:04;98859.06;;;5.91;100.00
18795;BME280;29610;49.022;12.114;2023-02-04T05:25:33;98870.16;;;5.95;100.00
18795;BME280;29610;49.022;12.114;2023-02-04T05:28:03;98907.50;;;5.35;100.00
18795;BME280;29610;49.022;12.114;2023-02-04T05:30:32;98926.06;;;4.03;100.00
18795;BME280;29610;49.022;12.114;2023-02-04T05:33:01;98955.31;;;3.45;100.00
18795;BME280;29610;49.022;12.114;2023-02-04T05:35:30;98944.56;;;2.95;100.00
18795;BME280;29610;49.022;12.114;2023-02-04T05:38:01;98958.72;;;2.91;100.00
18795;BME280;29610;49.022;12.114;2023-02-04T05:40:29;98954.69;;;2.77;100.00
18795;BME280;29610;49.022;12.114;2023-02-04T05:43:00;98954.56;;;2.83;100.00
18795;BME280;29610;49.022;12.114;2023-02-04T05:45:32;98957.81;;;2.85;100.00
18795;BME280;29610;49.022;12.114;2023-02-04T05:48:01;98963.78;;;3.04;100.00
18795;BME280;29610;49.022;12.114;2023-02-04T05:50:29;98972.50;;;3.11;100.00
18795;BME280;29610;49.022;12.114;2023-02-04T05:53:07;98972.41;;;3.23;100.00
18795;BME280;29610;49.022;12.114;2023-02-04T05:55:36;98980.09;;;3.47;100.00
18795;BME280;29610;49.022;12.114;2023-02-04T05:58:05;98989.69;;;3.43;100.00
18795;BME280;29610;49.022;12.114;2023-02-04T06:00:35;98992.88;;;3.57;100.00
18795;BME280;29610;49.022;12.114;2023-02-04T06:03:03;98998.09;;;3.47;100.00
18795;BME280;29610;49.022;12.114;2023-02-04T06:05:32;99003.28;;;3.53;100.00
18795;BME280;29610;49.022;12.114;2023-02-04T06:08:00;99010.78;;;3.51;100.00
18795;BME280;29610;49.022;12.114;2023-02-04T06:10:29;99011.44;;;3.58;100.00
18795;BME280;29610;49.022;12.114;2023-02-04T06:12:58;99012.28;;;3.59;100.00
18795;BME280;29610;49.022;12.114;2023-02-04T06:15:27;99010.72;;;3.46;100.00
18795;BME280;29610;49.022;12.114;2023-02-04T06:17:57;99017.91;;;3.57;100.00
18795;BME280;29610;49.022;12.114;2023-02-04T06:20:25;99029.69;;;3.56;100.00
18795;BME280;29610;49.022;12.114;2023-02-04T06:22:54;99034.72;;;3.53;100.00
18795;BME280;29610;49.022;12.114;2023-02-04T06:25:23;99036.88;;;3.51;100.00
18795;BME280;29610;49.022;12.114;2023-02-04T06:27:52;99037.41;;;3.53;100.00
18795;BME280;29610;49.022;12.114;2023-02-04T06:30:21;99049.41;;;3.62;100.00
18795;BME280;29610;49.022;12.114;2023-02-04T06:32:50;99058.47;;;3.56;100.00
18795;BME280;29610;49.022;12.114;2023-02-04T06:35:20;99066.19;;;3.52;100.00
18795;BME280;29610;49.022;12.114;2023-02-04T06:37:49;99080.75;;;3.56;100.00
18795;BME280;29610;49.022;12.114;2023-02-04T06:40:18;99076.22;;;3.57;100.00
18795;BME280;29610;49.022;12.114;2023-02-04T06:42:47;99083.78;;;3.60;100.00
18795;BME280;29610;49.022;12.114;2023-02-04T06:45:16;99075.81;;;3.65;100.00
18795;BME280;29610;49.022;12.114;2023-02-04T06:47:44;99090.47;;;3.57;100.00
18795;BME280;29610;49.022;12.114;2023-02-04T06:50:13;99094.84;;;3.47;100.00
18795;BME280;29610;49.022;12.114;2023-02-04T06:52:47;99096.88;;;3.40;100.00
18795;BME280;29610;49.022;12.114;2023-02-04T06:55:16;99097.44;;;3.42;100.00
18795;BME280;29610;49.022;12.114;2023-02-04T06:57:45;99108.50;;;3.29;100.00
18795;BME280;29610;49.022;12.114;2023-02-04T07:00:15;99108.25;;;3.30;100.00
18795;BME280;29610;49.022;12.114;2023-02-04T07:02:44;99111.88;;;3.24;100.00
18795;BME280;29610;49.022;12.114;2023-02-04T07:05:12;99116.22;;;3.25;100.00
18795;BME280;29610;49.022;12.114;2023-02-04T07:07:41;99122.31;;;3.21;100.00
18795;BME280;29610;49.022;12.114;2023-02-04T07:10:11;99117.00;;;3.26;100.00
18795;BME280;29610;49.022;12.114;2023-02-04T07:12:40;99130.38;;;3.21;100.00
18795;BME280;29610;49.022;12.114;2023-02-04T07:15:12;99137.16;;;3.12;100.00
18795;BME280;29610;49.022;12.114;2023-02-04T07:17:41;99138.31;;;3.16;100.00
18795;BME280;29610;49.022;12.114;2023-02-04T07:20:11;99143.88;;;3.26;100.00
18795;BME280;29610;49.022;12.114;2023-02-04T07:22:40;99160.72;;;3.21;100.00
18795;BME280;29610;49.022;12.114;2023-02-04T07:25:10;99164.25;;;3.10;100.00
18795;BME280;29610;49.022;12.114;2023-02-04T07:27:41;99176.84;;;3.10;100.00
18795;BME280;29610;49.022;12.114;2023-02-04T07:30:12;99179.66;;;3.15;100.00
18795;BME280;29610;49.022;12.114;2023-02-04T07:32:41;99193.44;;;3.18;100.00
18795;BME280;29610;49.022;12.114;2023-02-04T07:35:10;99195.44;;;3.11;100.00
18795;BME280;29610;49.022;12.114;2023-02-04T07:37:39;99204.31;;;3.12;100.00
18795;BME280;29610;49.022;12.114;2023-02-04T07:40:11;99202.56;;;3.06;100.00
18795;BME280;29610;49.022;12.114;2023-02-04T07:42:40;99217.63;;;3.07;100.00
18795;BME280;29610;49.022;12.114;2023-02-04T07:45:15;99219.16;;;3.14;100.00
18795;BME280;29610;49.022;12.114;2023-02-04T07:47:44;99219.03;;;3.09;100.00
18795;BME280;29610;49.022;12.114;2023-02-04T07:50:13;99230.22;;;3.18;100.00
18795;BME280;29610;49.022;12.114;2023-02-04T07:52:42;99240.94;;;3.41;100.00
18795;BME280;29610;49.022;12.114;2023-02-04T07:55:13;99248.06;;;3.35;100.00
18795;BME280;29610;49.022;12.114;2023-02-04T07:57:41;99254.25;;;3.36;100.00
18795;BME280;29610;49.022;12.114;2023-02-04T08:00:12;99250.97;;;3.45;100.00
18795;BME280;29610;49.022;12.114;2023-02-04T08:02:42;99244.16;;;3.54;100.00
18795;BME280;29610;49.022;12.114;2023-02-04T08:05:11;99257.28;;;3.51;100.00
18795;BME280;29610;49.022;12.114;2023-02-04T08:07:40;99246.94;;;3.59;100.00
18795;BME280;29610;49.022;12.114;2023-02-04T08:10:13;99255.72;;;3.55;100.00
18795;BME280;29610;49.022;12.114;2023-02-04T08:12:42;99248.94;;;3.64;100.00
18795;BME280;29610;49.022;12.114;2023-02-04T08:15:11;99263.63;;;3.73;100.00
18795;BME280;29610;49.022;12.114;2023-02-04T08:17:39;99263.53;;;3.68;100.00
18795;BME280;29610;49.022;12.114;2023-02-04T08:20:10;99279.72;;;3.84;100.00
18795;BME280;29610;49.022;12.114;2023-02-04T08:22:39;99268.03;;;3.79;100.00
18795;BME280;29610;49.022;12.114;2023-02-04T08:25:09;99277.56;;;3.70;100.00
18795;BME280;29610;49.022;12.114;2023-02-04T08:27:40;99277.91;;;3.73;100.00
18795;BME280;29610;49.022;12.114;2023-02-04T08:30:10;99276.22;;;3.84;100.00
18795;BME280;29610;49.022;12.114;2023-02-04T08:32:39;99279.28;;;3.76;100.00
18795;BME280;29610;49.022;12.114;2023-02-04T08:35:08;99287.59;;;3.74;100.00
18795;BME280;29610;49.022;12.114;2023-02-04T08:37:37;99294.19;;;3.83;100.00
18795;BME280;29610;49.022;12.114;2023-02-04T08:40:06;99298.16;;;3.92;100.00
18795;BME280;29610;49.022;12.114;2023-02-04T08:42:35;99306.47;;;3.91;100.00
18795;BME280;29610;49.022;12.114;2023-02-04T08:45:07;99305.63;;;4.02;100.00
18795;BME280;29610;49.022;12.114;2023-02-04T08:47:36;99305.13;;;4.05;100.00
18795;BME280;29610;49.022;12.114;2023-02-04T08:50:07;99304.41;;;4.09;100.00
18795;BME280;29610;49.022;12.114;2023-02-04T08:52:36;99299.69;;;3.88;100.00
18795;BME280;29610;49.022;12.114;2023-02-04T08:55:06;99302.13;;;3.90;100.00
18795;BME280;29610;49.022;12.114;2023-02-04T08:57:35;99310.94;;;3.85;100.00
18795;BME280;29610;49.022;12.114;2023-02-04T09:00:06;99307.66;;;3.83;100.00
18795;BME280;29610;49.022;12.114;2023-02-04T09:02:35;99316.50;;;3.95;100.00
18795;BME280;29610;49.022;12.114;2023-02-04T09:05:06;99313.59;;;3.97;100.00
18795;BME280;29610;49.022;12.114;2023-02-04T09:07:48;99320.91;;;4.13;100.00
18795;BME280;29610;49.022;12.114;2023-02-04T09:10:17;99320.59;;;3.98;100.00
18795;BME280;29610;49.022;12.114;2023-02-04T09:12:46;99331.34;;;3.98;100.00
18795;BME280;29610;49.022;12.114;2023-02-04T09:15:17;99328.63;;;4.09;100.00
18795;BME280;29610;49.022;12.114;2023-02-04T09:17:46;99337.16;;;4.34;100.00
18795;BME280;29610;49.022;12.114;2023-02-04T09:20:15;99333.84;;;4.44;100.00
18795;BME280;29610;49.022;12.114;2023-02-04T09:22:44;99345.75;;;4.20;100.00
18795;BME280;29610;49.022;12.114;2023-02-04T09:25:14;99358.19;;;4.21;100.00
18795;BME280;29610;49.022;12.114;2023-02-04T09:27:43;99350.56;;;4.46;100.00
18795;BME280;29610;49.022;12.114;2023-02-04T09:30:13;99358.25;;;4.54;100.00
18795;BME280;29610;49.022;12.114;2023-02-04T09:32:45;99356.38;;;4.55;100.00
18795;BME280;29610;49.022;12.114;2023-02-04T09:35:14;99359.16;;;4.60;100.00
18795;BME280;29610;49.022;12.114;2023-02-04T09:37:43;99357.66;;;4.52;100.00
18795;BME280;29610;49.022;12.114;2023-02-04T09:40:15;99364.47;;;4.71;100.00
18795;BME280;29610;49.022;12.114;2023-02-04T09:42:46;99366.69;;;4.74;100.00
18795;BME280;29610;49.022;12.114;2023-02-04T09:45:20;99362.53;;;5.00;100.00
18795;BME280;29610;49.022;12.114;2023-02-04T09:47:53;99373.31;;;5.16;100.00
18795;BME280;29610;49.022;12.114;2023-02-04T09:50:26;99372.81;;;5.03;100.00
18795;BME280;29610;49.022;12.114;2023-02-04T09:52:59;99379.84;;;5.04;100.00
18795;BME280;29610;49.022;12.114;2023-02-04T09:55:35;99384.78;;;4.62;100.00
18795;BME280;29610;49.022;12.114;2023-02-04T09:58:13;99395.41;;;4.69;100.00
18795;BME280;29610;49.022;12.114;2023-02-04T10:00:45;99397.56;;;4.55;100.00
18795;BME280;29610;49.022;12.114;2023-02-04T10:03:18;99407.31;;;4.56;100.00
18795;BME280;29610;49.022;12.114;2023-02-04T10:05:50;99411.03;;;4.55;100.00
18795;BME280;29610;49.022;12.114;2023-02-04T10:08:25;99412.00;;;4.49;100.00
18795;BME280;29610;49.022;12.114;2023-02-04T10:10:56;99420.28;;;4.59;100.00
18795;BME280;29610;49.022;12.114;2023-02-04T10:13:32;99410.38;;;4.93;100.00
18795;BME280;29610;49.022;12.114;2023-02-04T10:16:13;99414.88;;;5.04;100.00
18795;BME280;29610;49.022;12.114;2023-02-04T10:18:44;99419.84;;;4.95;100.00
18795;BME280;29610;49.022;12.114;2023-02-04T10:21:16;99422.25;;;5.08;100.00
18795;BME280;29610;49.022;12.114;2023-02-04T10:23:50;99424.78;;;5.15;100.00
18795;BME280;29610;49.022;12.114;2023-02-04T10:26:22;99419.63;;;5.13;100.00
18795;BME280;29610;49.022;12.114;2023-02-04T10:28:59;99426.16;;;5.17;100.00
18795;BME280;29610;49.022;12.114;2023-02-04T10:31:35;99425.75;;;5.25;100.00
18795;BME280;29610;49.022;12.114;2023-02-04T10:34:13;99411.34;;;5.53;100.00
18795;BME280;29610;49.022;12.114;2023-02-04T10:36:47;99414.00;;;5.86;100.00
18795;BME280;29610;49.022;12.114;2023-02-04T10:39:19;99418.00;;;6.22;100.00
18795;BME280;29610;49.022;12.114;2023-02-04T10:41:51;99410.97;;;6.69;100.00
18795;BME280;29610;49.022;12.114;2023-02-04T10:44:30;99410.69;;;6.44;100.00
18795;BME280;29610;49.022;12.114;2023-02-04T10:46:59;99417.72;;;6.02;100.00
18795;BME280;29610;49.022;12.114;2023-02-04T10:49:31;99409.78;;;6.12;100.00
18795;BME280;29610;49.022;12.114;2023-02-04T10:52:13;99407.13;;;6.17;100.00
18795;BME280;29610;49.022;12.114;2023-02-04T10:54:43;99401.38;;;6.30;100.00
18795;BME280;29610;49.022;12.114;2023-02-04T10:57:18;99407.59;;;6.30;100.00
18795;BME280;29610;49.022;12.114;2023-02-04T10:59:52;99411.13;;;5.92;100.00
18795;BME280;29610;49.022;12.114;2023-02-04T11:02:42;99413.44;;;5.84;100.00
18795;BME280;29610;49.022;12.114;2023-02-04T11:05:17;99418.19;;;5.77;100.00
18795;BME280;29610;49.022;12.114;2023-02-04T11:07:48;99415.75;;;5.75;100.00
18795;BME280;29610;49.022;12.114;2023-02-04T11:10:20;99426.13;;;5.83;100.00
18795;BME280;29610;49.022;12.114;2023-02-04T11:13:02;99424.09;;;5.74;100.00
18795;BME280;29610;49.022;12.114;2023-02-04T11:15:41;99427.03;;;5.56;100.00
18795;BME280;29610;49.022;12.114;2023-02-04T11:18:25;99429.91;;;5.49;100.00
18795;BME280;29610;49.022;12.114;2023-02-04T11:20:58;99424.75;;;5.64;100.00
18795;BME280;29610;49.022;12.114;2023-02-04T11:23:35;99414.75;;;5.81;100.00
18795;BME280;29610;49.022;12.114;2023-02-04T11:26:11;99402.69;;;6.06;100.00
18795;BME280;29610;49.022;12.114;2023-02-04T11:29:07;99413.00;;;6.30;100.00
18795;BME280;29610;49.022;12.114;2023-02-04T11:32:05;99413.44;;;6.22;100.00
18795;BME280;29610;49.022;12.114;2023-02-04T11:34:47;99418.75;;;6.17;100.00
18795;BME280;29610;49.022;12.114;2023-02-04T11:37:34;99414.09;;;5.74;100.00
18795;BME280;29610;49.022;12.114;2023-02-04T11:40:28;99426.53;;;5.59;100.00
18795;BME280;29610;49.022;12.114;2023-02-04T11:43:00;99425.94;;;5.73;100.00
18795;BME280;29610;49.022;12.114;2023-02-04T11:45:33;99435.63;;;5.53;100.00
18795;BME280;29610;49.022;12.114;2023-02-04T11:48:11;99434.91;;;5.41;100.00
18795;BME280;29610;49.022;12.114;2023-02-04T11:50:41;99435.13;;;5.39;100.00
18795;BME280;29610;49.022;12.114;2023-02-04T11:53:12;99437.50;;;5.85;100.00
18795;BME280;29610;49.022;12.114;2023-02-04T11:55:44;99433.56;;;6.36;100.00
18795;BME280;29610;49.022;12.114;2023-02-04T11:58:17;99437.56;;;6.34;100.00
18795;BME280;29610;49.022;12.114;2023-02-04T12:00:46;99418.81;;;6.70;100.00
18795;BME280;29610;49.022;12.114;2023-02-04T12:03:24;99429.31;;;6.19;100.00
18795;BME280;29610;49.022;12.114;2023-02-04T12:05:54;99427.44;;;5.64;100.00
18795;BME280;29610;49.022;12.114;2023-02-04T12:08:31;99429.19;;;5.37;100.00
18795;BME280;29610;49.022;12.114;2023-02-04T12:11:09;99433.25;;;5.07;100.00
18795;BME280;29610;49.022;12.114;2023-02-04T12:13:47;99436.94;;;5.01;100.00
18795;BME280;29610;49.022;12.114;2023-02-04T12:16:17;99433.09;;;5.13;100.00
18795;BME280;29610;49.022;12.114;2023-02-04T12:18:46;99428.19;;;5.60;100.00
18795;BME280;29610;49.022;12.114;2023-02-04T12:21:15;99422.06;;;6.03;100.00
18795;BME280;29610;49.022;12.114;2023-02-04T12:23:46;99421.88;;;6.31;100.00
18795;BME280;29610;49.022;12.114;2023-02-04T12:26:15;99419.25;;;6.57;100.00
18795;BME280;29610;49.022;12.114;2023-02-04T12:28:44;99407.59;;;6.83;100.00
18795;BME280;29610;49.022;12.114;2023-02-04T12:31:13;99411.16;;;7.52;100.00
18795;BME280;29610;49.022;12.114;2023-02-04T12:33:42;99418.63;;;6.77;100.00
18795;BME280;29610;49.022;12.114;2023-02-04T12:36:11;99413.50;;;7.07;100.00
18795;BME280;29610;49.022;12.114;2023-02-04T12:38:40;99402.25;;;7.20;100.00
18795;BME280;29610;49.022;12.114;2023-02-04T12:41:10;99407.59;;;7.41;100.00
18795;BME280;29610;49.022;12.114;2023-02-04T12:43:39;99394.06;;;7.83;100.00
18795;BME280;29610;49.022;12.114;2023-02-04T12:46:08;99400.22;;;7.79;100.00
18795;BME280;29610;49.022;12.114;2023-02-04T12:48:37;99405.50;;;8.00;100.00
18795;BME280;29610;49.022;12.114;2023-02-04T12:51:07;99406.47;;;7.79;100.00
18795;BME280;29610;49.022;12.114;2023-02-04T12:53:36;99400.69;;;8.17;100.00
18795;BME280;29610;49.022;12.114;2023-02-04T12:56:06;99400.00;;;8.32;100.00
18795;BME280;29610;49.022;12.114;2023-02-04T12:58:36;99412.28;;;6.93;100.00
18795;BME280;29610;49.022;12.114;2023-02-04T13:01:05;99410.91;;;7.54;100.00
18795;BME280;29610;49.022;12.114;2023-02-04T13:03:33;99410.00;;;7.80;100.00
18795;BME280;29610;49.022;12.114;2023-02-04T13:06:03;99419.25;;;7.47;100.00
18795;BME280;29610;49.022;12.114;2023-02-04T13:08:31;99424.66;;;6.84;100.00